createdAt,value
2022-10-09T00:01:52.643Z,8.79
2022-10-09T00:04:20.002Z,8.76
2022-10-09T00:06:47.171Z,8.75
2022-10-09T00:09:14.473Z,8.80
2022-10-09T00:11:41.738Z,8.74
2022-10-09T00:14:10.464Z,8.69
2022-10-09T00:16:37.739Z,8.70
2022-10-09T00:19:04.917Z,8.68
2022-10-09T00:21:33.486Z,8.73
2022-10-09T00:24:02.487Z,8.71
2022-10-09T00:26:30.010Z,8.65
2022-10-09T00:28:57.450Z,8.58
2022-10-09T00:31:26.077Z,8.58
2022-10-09T00:33:53.463Z,8.58
2022-10-09T00:36:22.926Z,8.50
2022-10-09T00:38:50.950Z,8.47
2022-10-09T00:41:20.928Z,8.53
2022-10-09T00:43:50.384Z,8.50
2022-10-09T00:46:36.606Z,8.46
2022-10-09T00:49:11.495Z,8.55
2022-10-09T00:51:39.333Z,8.52
2022-10-09T00:54:11.006Z,8.53
2022-10-09T00:56:38.395Z,8.55
2022-10-09T00:59:06.690Z,8.51
2022-10-09T01:01:35.349Z,8.54
2022-10-09T01:04:02.649Z,8.46
2022-10-09T01:06:43.976Z,8.43
2022-10-09T01:09:14.750Z,8.48
2022-10-09T01:11:48.954Z,8.50
2022-10-09T01:14:24.140Z,8.45
2022-10-09T01:16:59.819Z,8.44
2022-10-09T01:19:56.751Z,8.42
2022-10-09T01:22:39.912Z,8.43
2022-10-09T01:25:08.884Z,8.44
2022-10-09T01:27:38.252Z,8.39
2022-10-09T01:30:08.651Z,8.42
2022-10-09T01:32:39.115Z,8.39
2022-10-09T01:35:09.002Z,8.37
2022-10-09T01:37:39.842Z,8.36
2022-10-09T01:40:10.307Z,8.36
2022-10-09T01:42:38.882Z,8.33
2022-10-09T01:45:07.248Z,8.31
2022-10-09T01:47:34.451Z,8.30
2022-10-09T01:50:06.638Z,8.27
2022-10-09T01:52:43.608Z,8.37
2022-10-09T01:55:25.555Z,8.29
2022-10-09T01:57:59.551Z,8.22
2022-10-09T02:00:28.466Z,8.21
2022-10-09T02:02:57.342Z,8.19
2022-10-09T02:05:27.881Z,8.12
2022-10-09T02:07:56.978Z,8.10
2022-10-09T02:10:25.212Z,8.13
2022-10-09T02:12:56.663Z,8.05
2022-10-09T02:15:31.098Z,8.11
2022-10-09T02:18:04.255Z,8.06
2022-10-09T02:20:35.274Z,8.03
2022-10-09T02:23:06.948Z,8.01
2022-10-09T02:25:34.932Z,8.00
2022-10-09T02:28:04.573Z,7.94
2022-10-09T02:30:44.705Z,7.96
2022-10-09T02:33:12.035Z,7.94
2022-10-09T02:35:39.983Z,7.92
2022-10-09T02:38:07.208Z,7.94
2022-10-09T02:40:34.403Z,7.93
2022-10-09T02:43:03.255Z,7.97
2022-10-09T02:45:30.458Z,7.95
2022-10-09T02:47:57.635Z,7.95
2022-10-09T02:50:24.865Z,7.98
2022-10-09T02:52:52.152Z,7.92
2022-10-09T02:55:19.393Z,7.92
2022-10-09T02:57:46.580Z,7.91
2022-10-09T03:00:15.687Z,7.91
2022-10-09T03:02:42.989Z,7.93
2022-10-09T03:05:10.733Z,7.91
2022-10-09T03:07:38.118Z,7.93
2022-10-09T03:10:06.067Z,7.93
2022-10-09T03:12:33.260Z,7.87
2022-10-09T03:15:00.534Z,7.86
2022-10-09T03:17:29.081Z,7.78
2022-10-09T03:19:56.258Z,7.75
2022-10-09T03:22:23.440Z,7.75
2022-10-09T03:24:50.698Z,7.79
2022-10-09T03:27:17.962Z,7.75
2022-10-09T03:29:45.123Z,7.80
2022-10-09T03:32:12.595Z,7.71
2022-10-09T03:34:41.184Z,7.79
2022-10-09T03:37:08.402Z,7.72
2022-10-09T03:39:35.641Z,7.67
2022-10-09T03:42:02.864Z,7.71
2022-10-09T03:44:30.085Z,7.64
2022-10-09T03:46:57.741Z,7.69
2022-10-09T03:49:25.041Z,7.65
2022-10-09T03:51:53.654Z,7.67
2022-10-09T03:54:20.865Z,7.55
2022-10-09T03:56:48.054Z,7.56
2022-10-09T03:59:15.317Z,7.53
2022-10-09T04:01:42.535Z,7.56
2022-10-09T04:04:09.737Z,7.52
2022-10-09T04:06:37.012Z,7.49
2022-10-09T04:09:05.838Z,7.49
2022-10-09T04:11:33.343Z,7.48
2022-10-09T04:14:00.910Z,7.45
2022-10-09T04:16:28.161Z,7.54
2022-10-09T04:18:55.395Z,7.55
2022-10-09T04:21:22.596Z,7.46
2022-10-09T04:23:51.121Z,7.47
2022-10-09T04:26:19.959Z,7.49
2022-10-09T04:28:47.302Z,7.46
2022-10-09T04:31:14.646Z,7.44
2022-10-09T04:33:41.889Z,7.48
2022-10-09T04:36:09.125Z,7.43
2022-10-09T04:38:36.347Z,7.45
2022-10-09T04:41:05.482Z,7.44
2022-10-09T04:43:35.053Z,7.42
2022-10-09T04:46:04.759Z,7.46
2022-10-09T04:48:32.102Z,7.42
2022-10-09T04:50:59.273Z,7.37
2022-10-09T04:53:26.457Z,7.38
2022-10-09T04:55:53.635Z,7.27
2022-10-09T04:58:20.830Z,7.34
2022-10-09T05:00:49.545Z,7.30
2022-10-09T05:03:16.942Z,7.28
2022-10-09T05:05:44.182Z,7.27
2022-10-09T05:08:11.349Z,7.35
2022-10-09T05:10:38.673Z,7.43
2022-10-09T05:13:06.024Z,7.36
2022-10-09T05:15:36.550Z,7.37
2022-10-09T05:18:05.328Z,7.25
2022-10-09T05:20:32.521Z,7.29
2022-10-09T05:22:59.754Z,7.32
2022-10-09T05:25:26.943Z,7.39
2022-10-09T05:27:54.157Z,7.36
2022-10-09T05:30:21.393Z,7.36
2022-10-09T05:32:48.848Z,7.34
2022-10-09T05:35:17.739Z,7.30
2022-10-09T05:37:45.143Z,7.35
2022-10-09T05:40:12.386Z,7.31
2022-10-09T05:42:39.636Z,7.35
2022-10-09T05:45:08.069Z,7.29
2022-10-09T05:47:35.315Z,7.34
2022-10-09T05:50:02.580Z,7.31
2022-10-09T05:52:31.211Z,7.34
2022-10-09T05:54:58.449Z,7.32
2022-10-09T05:57:26.373Z,7.28
2022-10-09T05:59:53.635Z,7.29
2022-10-09T06:02:20.852Z,7.31
2022-10-09T06:04:48.243Z,7.31
2022-10-09T06:07:15.417Z,7.33
2022-10-09T06:09:43.988Z,7.34
2022-10-09T06:12:11.174Z,7.41
2022-10-09T06:14:38.376Z,7.42
2022-10-09T06:17:05.670Z,7.35
2022-10-09T06:19:32.891Z,7.35
2022-10-09T06:22:00.123Z,7.44
2022-10-09T06:24:29.358Z,7.43
2022-10-09T06:26:58.412Z,7.50
2022-10-09T06:29:26.209Z,7.51
2022-10-09T06:31:53.693Z,7.48
2022-10-09T06:34:20.976Z,7.54
2022-10-09T06:36:48.310Z,7.55
2022-10-09T06:39:15.643Z,7.56
2022-10-09T06:41:42.936Z,7.62
2022-10-09T06:44:39.666Z,7.66
2022-10-09T06:47:07.003Z,7.71
2022-10-09T06:49:34.261Z,7.73
2022-10-09T06:52:01.489Z,7.81
2022-10-09T06:54:28.662Z,7.94
2022-10-09T06:56:55.841Z,7.90
2022-10-09T06:59:23.025Z,7.97
2022-10-09T07:01:51.621Z,8.02
2022-10-09T07:04:19.100Z,8.06
2022-10-09T07:06:46.547Z,8.10
2022-10-09T07:09:15.195Z,8.06
2022-10-09T07:11:44.436Z,8.09
2022-10-09T07:14:13.377Z,8.16
2022-10-09T07:16:42.144Z,8.26
2022-10-09T07:19:14.506Z,8.31
2022-10-09T07:21:43.621Z,8.38
2022-10-09T07:24:12.023Z,8.40
2022-10-09T07:26:41.547Z,8.46
2022-10-09T07:29:10.961Z,8.55
2022-10-09T07:31:38.246Z,8.58
2022-10-09T07:34:05.509Z,8.69
2022-10-09T07:36:34.536Z,8.75
2022-10-09T07:39:02.021Z,8.79
2022-10-09T07:41:30.196Z,8.78
2022-10-09T07:43:58.120Z,8.84
2022-10-09T07:46:30.827Z,8.88
2022-10-09T07:49:00.749Z,9.00
2022-10-09T07:51:29.022Z,9.07
2022-10-09T07:53:57.979Z,9.09
2022-10-09T07:56:26.629Z,9.12
2022-10-09T07:58:55.949Z,9.20
2022-10-09T08:01:24.380Z,9.32
2022-10-09T08:03:51.724Z,9.39
2022-10-09T08:06:19.616Z,9.54
2022-10-09T08:08:49.945Z,9.65
2022-10-09T08:11:19.760Z,9.63
2022-10-09T08:13:48.225Z,9.82
2022-10-09T08:16:15.564Z,9.84
2022-10-09T08:18:43.296Z,9.87
2022-10-09T08:21:12.952Z,9.96
2022-10-09T08:23:40.402Z,10.06
2022-10-09T08:26:13.087Z,10.16
2022-10-09T08:28:41.707Z,10.17
2022-10-09T08:31:13.350Z,10.24
2022-10-09T08:33:40.734Z,10.30
2022-10-09T08:36:10.276Z,10.46
2022-10-09T08:38:47.222Z,10.67
2022-10-09T08:41:27.302Z,10.69
2022-10-09T08:44:01.155Z,10.67
2022-10-09T08:46:35.031Z,10.81
2022-10-09T08:49:04.073Z,10.88
2022-10-09T08:51:34.915Z,11.12
2022-10-09T08:54:10.770Z,11.18
2022-10-09T08:56:38.357Z,11.26
2022-10-09T08:59:09.694Z,11.35
2022-10-09T09:01:44.946Z,11.33
2022-10-09T09:04:44.940Z,11.67
2022-10-09T09:07:24.253Z,11.71
2022-10-09T09:09:54.786Z,11.82
2022-10-09T09:12:31.051Z,12.00
2022-10-09T09:15:20.132Z,12.03
2022-10-09T09:17:55.763Z,12.27
2022-10-09T09:20:25.903Z,12.34
2022-10-09T09:22:53.303Z,12.41
2022-10-09T09:25:23.447Z,12.47
2022-10-09T09:27:53.914Z,12.61
2022-10-09T09:30:27.040Z,12.62
2022-10-09T09:33:01.597Z,12.68
2022-10-09T09:35:36.010Z,12.85
2022-10-09T09:38:03.497Z,12.64
2022-10-09T09:40:38.240Z,13.00
2022-10-09T09:43:15.103Z,12.98
2022-10-09T09:45:45.313Z,13.13
2022-10-09T09:48:16.546Z,13.29
2022-10-09T09:50:56.435Z,13.27
2022-10-09T09:53:36.538Z,13.58
2022-10-09T09:56:04.647Z,13.76
2022-10-09T09:58:36.054Z,13.73
2022-10-09T10:01:06.001Z,14.00
2022-10-09T10:03:34.511Z,14.01
2022-10-09T10:06:02.023Z,14.53
2022-10-09T10:08:31.673Z,15.48
2022-10-09T10:11:01.908Z,15.87
2022-10-09T10:13:33.650Z,16.09
2022-10-09T10:16:01.868Z,16.34
2022-10-09T10:18:36.365Z,16.97
2022-10-09T10:21:08.191Z,16.33
2022-10-09T10:23:39.470Z,16.52
2022-10-09T10:26:13.900Z,16.61
2022-10-09T10:28:48.567Z,16.63
2022-10-09T10:31:29.186Z,17.16
2022-10-09T10:33:58.689Z,16.58
2022-10-09T10:36:28.291Z,16.77
2022-10-09T10:39:02.096Z,16.61
2022-10-09T10:41:33.037Z,16.59
2022-10-09T10:44:03.820Z,16.51
2022-10-09T10:46:34.418Z,16.54
2022-10-09T10:49:04.404Z,16.23
2022-10-09T10:51:46.554Z,16.02
2022-10-09T10:54:30.444Z,15.59
2022-10-09T10:57:08.062Z,16.00
2022-10-09T10:59:41.489Z,16.58
2022-10-09T11:02:41.150Z,16.40
2022-10-09T11:05:21.252Z,17.47
2022-10-09T11:07:59.170Z,17.57
2022-10-09T11:10:35.662Z,18.62
2022-10-09T11:13:10.995Z,17.35
2022-10-09T11:15:50.152Z,18.44
2022-10-09T11:18:40.811Z,19.23
2022-10-09T11:21:33.230Z,18.55
2022-10-09T11:24:18.571Z,17.56
2022-10-09T11:26:57.554Z,16.20
2022-10-09T11:29:35.199Z,18.36
2022-10-09T11:32:11.361Z,18.73
2022-10-09T11:34:44.564Z,19.06
2022-10-09T11:37:18.122Z,19.59
2022-10-09T11:39:46.222Z,18.14
2022-10-09T11:42:18.929Z,18.31
2022-10-09T11:44:53.417Z,19.68
2022-10-09T11:47:30.352Z,19.89
2022-10-09T11:50:14.613Z,19.63
2022-10-09T11:52:51.701Z,19.73
2022-10-09T11:55:21.500Z,19.22
2022-10-09T11:57:49.240Z,19.07
2022-10-09T12:00:27.892Z,19.71
2022-10-09T12:02:58.649Z,19.58
2022-10-09T12:05:36.088Z,19.20
2022-10-09T12:08:12.057Z,19.43
2022-10-09T12:10:46.181Z,20.17
2022-10-09T12:13:29.954Z,21.21
2022-10-09T12:15:59.244Z,21.75
2022-10-09T12:18:30.655Z,21.93
2022-10-09T12:21:01.425Z,20.91
2022-10-09T12:23:33.330Z,21.70
2022-10-09T12:26:02.026Z,21.06
2022-10-09T12:28:40.173Z,21.12
2022-10-09T12:31:18.448Z,21.90
2022-10-09T12:33:51.637Z,20.35
2022-10-09T12:36:23.780Z,19.45
2022-10-09T12:38:51.291Z,19.68
2022-10-09T12:41:23.682Z,20.19
2022-10-09T12:43:54.350Z,20.36
2022-10-09T12:46:33.635Z,20.15
2022-10-09T12:49:04.122Z,18.66
2022-10-09T12:51:33.312Z,18.20
2022-10-09T12:54:07.897Z,18.43
2022-10-09T12:56:37.758Z,18.41
2022-10-09T12:59:08.566Z,20.19
2022-10-09T13:01:35.968Z,21.00
2022-10-09T13:04:04.973Z,19.96
2022-10-09T13:06:37.366Z,19.76
2022-10-09T13:09:07.895Z,19.40
2022-10-09T13:11:37.772Z,20.39
2022-10-09T13:14:07.535Z,20.13
2022-10-09T13:16:42.046Z,19.69
2022-10-09T13:19:22.705Z,18.45
2022-10-09T13:22:01.448Z,17.94
2022-10-09T13:24:28.702Z,19.05
2022-10-09T13:26:55.954Z,20.08
2022-10-09T13:29:24.591Z,20.76
2022-10-09T13:31:52.028Z,22.01
2022-10-09T13:34:19.388Z,20.65
2022-10-09T13:36:46.625Z,20.99
2022-10-09T13:39:15.092Z,20.79
2022-10-09T13:41:43.097Z,20.34
2022-10-09T13:44:10.337Z,19.38
2022-10-09T13:46:38.969Z,20.25
2022-10-09T13:49:06.310Z,21.31
2022-10-09T13:51:33.530Z,20.80
2022-10-09T13:54:00.836Z,20.43
2022-10-09T13:56:28.003Z,21.35
2022-10-09T13:58:55.234Z,21.35
2022-10-09T14:01:22.723Z,21.00
2022-10-09T14:03:51.551Z,21.71
2022-10-09T14:06:18.797Z,21.44
2022-10-09T14:08:46.354Z,21.41
2022-10-09T14:11:13.735Z,21.21
2022-10-09T14:13:40.980Z,21.63
2022-10-09T14:16:08.380Z,21.67
2022-10-09T14:18:35.873Z,20.80
2022-10-09T14:21:14.627Z,20.93
2022-10-09T14:23:42.754Z,21.40
2022-10-09T14:26:10.084Z,21.72
2022-10-09T14:28:37.763Z,22.09
2022-10-09T14:31:06.561Z,21.68
2022-10-09T14:33:33.941Z,21.98
2022-10-09T14:36:05.982Z,21.27
2022-10-09T14:38:37.436Z,21.80
2022-10-09T14:41:05.125Z,21.23
2022-10-09T14:43:32.599Z,21.20
2022-10-09T14:46:04.938Z,21.48
2022-10-09T14:48:32.536Z,22.28
2022-10-09T14:51:04.605Z,21.15
2022-10-09T14:53:32.964Z,21.73
2022-10-09T14:56:02.880Z,21.41
2022-10-09T14:58:30.973Z,20.92
2022-10-09T15:00:58.513Z,21.21
2022-10-09T15:03:27.190Z,21.43
2022-10-09T15:05:57.283Z,21.18
2022-10-09T15:08:25.098Z,20.93
2022-10-09T15:10:52.476Z,21.25
2022-10-09T15:13:21.136Z,20.78
2022-10-09T15:15:48.394Z,20.75
2022-10-09T15:18:15.574Z,21.34
2022-10-09T15:20:44.543Z,20.89
2022-10-09T15:23:12.407Z,20.81
2022-10-09T15:25:39.626Z,20.65
2022-10-09T15:28:07.332Z,19.77
2022-10-09T15:30:35.953Z,19.71
2022-10-09T15:33:03.346Z,19.07
2022-10-09T15:35:32.132Z,19.37
2022-10-09T15:37:59.337Z,19.34
2022-10-09T15:40:26.704Z,18.87
2022-10-09T15:42:53.920Z,19.11
2022-10-09T15:45:21.193Z,19.41
2022-10-09T15:47:51.933Z,19.80
2022-10-09T15:50:19.246Z,19.31
2022-10-09T15:52:46.579Z,19.42
2022-10-09T15:55:14.167Z,19.45
2022-10-09T15:57:41.588Z,19.50
2022-10-09T16:00:09.951Z,19.17
2022-10-09T16:02:37.133Z,18.97
2022-10-09T16:05:06.424Z,18.67
2022-10-09T16:07:33.613Z,18.52
2022-10-09T16:10:00.941Z,18.12
2022-10-09T16:12:28.370Z,18.44
2022-10-09T16:14:55.569Z,18.16
2022-10-09T16:17:23.037Z,17.80
2022-10-09T16:19:50.261Z,17.96
2022-10-09T16:22:18.918Z,18.02
2022-10-09T16:24:46.237Z,17.67
2022-10-09T16:27:13.536Z,17.33
2022-10-09T16:29:40.805Z,16.75
2022-10-09T16:32:08.100Z,16.77
2022-10-09T16:34:35.377Z,16.59
2022-10-09T16:37:02.856Z,16.07
2022-10-09T16:39:34.132Z,15.90
2022-10-09T16:42:01.469Z,15.65
2022-10-09T16:44:28.703Z,15.44
2022-10-09T16:46:55.945Z,15.16
2022-10-09T16:49:25.105Z,15.04
2022-10-09T16:51:52.607Z,14.93
2022-10-09T16:54:19.964Z,14.84
2022-10-09T16:56:48.804Z,14.70
2022-10-09T16:59:16.386Z,14.59
2022-10-09T17:01:46.278Z,14.47
2022-10-09T17:04:13.878Z,14.34
2022-10-09T17:06:42.085Z,14.24
2022-10-09T17:09:13.709Z,14.02
2022-10-09T17:11:41.805Z,14.02
2022-10-09T17:14:10.960Z,13.91
2022-10-09T17:16:40.287Z,13.88
2022-10-09T17:19:07.659Z,13.80
2022-10-09T17:21:35.592Z,13.69
2022-10-09T17:24:04.914Z,13.68
2022-10-09T17:26:32.345Z,13.64
2022-10-09T17:29:00.592Z,13.52
2022-10-09T17:31:29.922Z,13.38
2022-10-09T17:33:59.182Z,13.23
2022-10-09T17:36:29.533Z,13.42
2022-10-09T17:38:57.091Z,13.15
2022-10-09T17:41:26.199Z,13.19
2022-10-09T17:43:55.875Z,13.34
2022-10-09T17:46:24.383Z,13.13
2022-10-09T17:48:53.153Z,13.14
2022-10-09T17:51:22.551Z,13.05
2022-10-09T17:53:49.866Z,12.92
2022-10-09T17:56:18.046Z,12.80
2022-10-09T17:58:45.331Z,12.70
2022-10-09T18:01:13.898Z,12.70
2022-10-09T18:03:41.323Z,12.71
2022-10-09T18:06:13.033Z,12.69
2022-10-09T18:08:41.235Z,12.48
2022-10-09T18:11:11.029Z,12.44
2022-10-09T18:13:39.505Z,12.50
2022-10-09T18:16:09.395Z,12.54
2022-10-09T18:18:36.846Z,12.44
2022-10-09T18:21:05.174Z,12.34
2022-10-09T18:23:34.325Z,12.43
2022-10-09T18:26:06.931Z,12.37
2022-10-09T18:28:34.292Z,12.47
2022-10-09T18:31:04.769Z,12.29
2022-10-09T18:33:32.229Z,12.24
2022-10-09T18:36:02.870Z,12.11
2022-10-09T18:38:30.343Z,12.18
2022-10-09T18:40:58.937Z,12.05
2022-10-09T18:43:26.165Z,12.14
2022-10-09T18:45:54.092Z,12.01
2022-10-09T18:48:21.866Z,11.90
2022-10-09T18:50:49.307Z,11.78
2022-10-09T18:53:16.596Z,11.82
2022-10-09T18:55:44.370Z,11.75
2022-10-09T18:58:14.920Z,11.82
2022-10-09T19:00:42.455Z,11.78
2022-10-09T19:03:09.703Z,11.84
2022-10-09T19:05:36.974Z,11.63
2022-10-09T19:08:05.351Z,11.51
2022-10-09T19:10:32.723Z,11.47
2022-10-09T19:13:00.253Z,11.45
2022-10-09T19:15:28.948Z,11.39
2022-10-09T19:17:56.193Z,11.64
2022-10-09T19:20:23.677Z,11.38
2022-10-09T19:22:51.010Z,11.45
2022-10-09T19:25:18.424Z,11.33
2022-10-09T19:27:45.693Z,11.20
2022-10-09T19:30:13.519Z,11.31
2022-10-09T19:32:42.456Z,11.16
2022-10-09T19:35:09.772Z,11.24
2022-10-09T19:37:36.973Z,11.18
2022-10-09T19:40:05.314Z,10.94
2022-10-09T19:42:32.597Z,10.98
2022-10-09T19:44:59.861Z,10.89
2022-10-09T19:47:27.072Z,10.89
2022-10-09T19:49:55.654Z,11.11
2022-10-09T19:52:23.004Z,11.02
2022-10-09T19:54:50.279Z,10.99
2022-10-09T19:57:17.627Z,10.97
2022-10-09T19:59:45.137Z,10.79
2022-10-09T20:02:12.395Z,10.82
2022-10-09T20:04:39.638Z,10.66
2022-10-09T20:07:12.550Z,10.71
2022-10-09T20:09:40.421Z,10.62
2022-10-09T20:12:07.619Z,10.44
2022-10-09T20:14:34.882Z,10.44
2022-10-09T20:17:02.187Z,10.47
2022-10-09T20:19:33.625Z,10.48
2022-10-09T20:22:02.675Z,10.41
2022-10-09T20:24:31.264Z,10.31
2022-10-09T20:26:58.507Z,10.21
2022-10-09T20:29:25.677Z,10.26
2022-10-09T20:31:54.139Z,10.39
2022-10-09T20:34:21.631Z,10.38
2022-10-09T20:36:49.162Z,10.20
2022-10-09T20:39:16.515Z,10.04
2022-10-09T20:41:45.883Z,10.22
2022-10-09T20:44:14.385Z,10.08
2022-10-09T20:46:42.371Z,10.18
2022-10-09T20:49:13.050Z,10.07
2022-10-09T20:51:41.481Z,10.11
2022-10-09T20:54:14.169Z,10.21
2022-10-09T20:56:41.460Z,10.14
2022-10-09T20:59:10.444Z,10.09
2022-10-09T21:01:37.887Z,10.09
2022-10-09T21:04:05.801Z,10.22
2022-10-09T21:06:33.252Z,10.24
2022-10-09T21:09:00.507Z,10.26
2022-10-09T21:11:27.851Z,10.27
2022-10-09T21:13:55.114Z,10.31
2022-10-09T21:16:24.773Z,10.31
2022-10-09T21:18:54.587Z,10.30
2022-10-09T21:21:21.879Z,10.30
2022-10-09T21:23:50.341Z,10.27
2022-10-09T21:26:19.618Z,10.20
2022-10-09T21:28:47.490Z,10.22
2022-10-09T21:31:17.356Z,10.18
2022-10-09T21:33:46.614Z,10.14
2022-10-09T21:36:23.697Z,10.12
2022-10-09T21:38:51.042Z,10.12
2022-10-09T21:41:18.285Z,10.01
2022-10-09T21:43:45.560Z,10.04
2022-10-09T21:46:12.808Z,10.04
2022-10-09T21:48:40.104Z,9.93
2022-10-09T21:51:08.811Z,9.94
2022-10-09T21:53:36.177Z,9.93
2022-10-09T21:56:03.949Z,9.89
2022-10-09T21:58:31.319Z,9.87
2022-10-09T22:00:59.985Z,9.82
2022-10-09T22:03:29.693Z,9.84
2022-10-09T22:05:57.299Z,9.92
2022-10-09T22:08:25.974Z,9.89
2022-10-09T22:10:53.173Z,9.80
2022-10-09T22:13:20.458Z,9.87
2022-10-09T22:15:51.122Z,9.94
2022-10-09T22:18:19.752Z,9.97
2022-10-09T22:20:49.671Z,9.90
2022-10-09T22:23:18.816Z,9.90
2022-10-09T22:25:56.861Z,9.87
2022-10-09T22:28:24.586Z,9.82
2022-10-09T22:31:01.212Z,9.81
2022-10-09T22:33:28.525Z,9.84
2022-10-09T22:36:03.217Z,9.76
2022-10-09T22:38:30.669Z,9.72
2022-10-09T22:41:08.470Z,9.72
2022-10-09T22:43:35.937Z,9.73
2022-10-09T22:46:08.820Z,9.76
2022-10-09T22:48:36.559Z,9.70
2022-10-09T22:51:04.964Z,9.74
2022-10-09T22:53:32.530Z,9.64
2022-10-09T22:55:59.803Z,9.67
2022-10-09T22:58:28.439Z,9.63
2022-10-09T23:00:55.883Z,9.64
2022-10-09T23:03:23.193Z,9.61
2022-10-09T23:05:50.469Z,9.62
2022-10-09T23:08:17.868Z,9.57
2022-10-09T23:10:45.096Z,9.57
2022-10-09T23:13:12.761Z,9.56
2022-10-09T23:15:41.413Z,9.62
2022-10-09T23:18:08.759Z,9.52
2022-10-09T23:20:36.698Z,9.53
2022-10-09T23:23:03.986Z,9.51
2022-10-09T23:25:31.394Z,9.56
2022-10-09T23:27:58.822Z,9.53
2022-10-09T23:30:26.058Z,9.53
2022-10-09T23:32:54.661Z,9.53
2022-10-09T23:35:21.993Z,9.54
2022-10-09T23:37:49.174Z,9.50
2022-10-09T23:40:16.676Z,9.46
2022-10-09T23:42:43.995Z,9.49
2022-10-09T23:45:11.755Z,9.57
2022-10-09T23:47:39.319Z,9.50
2022-10-09T23:50:08.488Z,9.51
2022-10-09T23:52:35.810Z,9.56
2022-10-09T23:55:03.093Z,9.56
2022-10-09T23:57:30.346Z,9.57
2022-10-09T23:59:57.625Z,9.65
